トロンハイム の空港の天気 - METARとTAF

Trondheim / Vaernes ( ENVA / TRD ) - ノルウェー ヌール・トロンデラーグ県、Stjordal
飛行場実況気象(Metar)
観測時間07/16 08:20 CEST (07/16 06:20 UTC)
風向・風速不定 1m/s
視程10km以上
天気現象
なし
気温21℃
湿度69%
気圧1014hPa
METARENVA 160620Z VRB02KT CAVOK 21/15 Q1014 NOSIG RMK WIND 670FT VRB03KT
過去の天気等 Google飛行場航空写真 Wunderground天気予報

過去48時間のMETAR

飛行場予報(TAF)
発表時間: -
16日11時 CEST ~ 16日13時 CEST に徐々に
風向・風速西 6m/s
16日20時 CEST ~ 16日22時 CEST に徐々に
風向・風速不定 3m/s
TAF ENVA 1606/1706 12005KT CAVOK
BECMG 1609/1611 27012KT
BECMG 1618/1620 VRB05KT